sensor_id;sensor_type;location;lat;lon;timestamp;pressure;altitude;pressure_sealevel;temperature;humidity
65376;BME280;51976;47.332;9.404;2024-01-30T00:00:20;94026.66;;;2.82;100.00
65376;BME280;51976;47.332;9.404;2024-01-30T00:02:46;94029.53;;;2.87;100.00
65376;BME280;51976;47.332;9.404;2024-01-30T00:05:11;94031.78;;;2.90;100.00
65376;BME280;51976;47.332;9.404;2024-01-30T00:07:37;94019.69;;;2.94;100.00
65376;BME280;51976;47.332;9.404;2024-01-30T00:10:02;94030.13;;;2.89;100.00
65376;BME280;51976;47.332;9.404;2024-01-30T00:12:28;94020.09;;;2.91;100.00
65376;BME280;51976;47.332;9.404;2024-01-30T00:14:53;94023.97;;;3.02;100.00
65376;BME280;51976;47.332;9.404;2024-01-30T00:17:19;94018.25;;;2.98;100.00
65376;BME280;51976;47.332;9.404;2024-01-30T00:19:46;94022.16;;;2.89;100.00
65376;BME280;51976;47.332;9.404;2024-01-30T00:22:11;94019.88;;;2.93;100.00
65376;BME280;51976;47.332;9.404;2024-01-30T00:24:36;94030.13;;;2.89;100.00
65376;BME280;51976;47.332;9.404;2024-01-30T00:27:02;94025.44;;;2.91;100.00
65376;BME280;51976;47.332;9.404;2024-01-30T00:29:27;94032.81;;;2.96;100.00
65376;BME280;51976;47.332;9.404;2024-01-30T00:31:56;94030.75;;;2.78;100.00
65376;BME280;51976;47.332;9.404;2024-01-30T00:34:21;94037.28;;;2.76;100.00
65376;BME280;51976;47.332;9.404;2024-01-30T00:36:47;94038.56;;;2.73;100.00
65376;BME280;51976;47.332;9.404;2024-01-30T00:39:12;94039.56;;;2.65;100.00
65376;BME280;51976;47.332;9.404;2024-01-30T00:41:38;94046.75;;;2.71;100.00
65376;BME280;51976;47.332;9.404;2024-01-30T00:44:03;94036.50;;;2.68;100.00
65376;BME280;51976;47.332;9.404;2024-01-30T00:46:29;94041.41;;;2.78;100.00
65376;BME280;51976;47.332;9.404;2024-01-30T00:48:54;94042.81;;;2.74;100.00
65376;BME280;51976;47.332;9.404;2024-01-30T00:51:19;94047.34;;;2.67;100.00
65376;BME280;51976;47.332;9.404;2024-01-30T00:53:45;94042.44;;;2.57;100.00
65376;BME280;51976;47.332;9.404;2024-01-30T00:56:10;94050.84;;;2.67;100.00
65376;BME280;51976;47.332;9.404;2024-01-30T00:58:35;94047.13;;;2.42;100.00
65376;BME280;51976;47.332;9.404;2024-01-30T01:01:01;94050.00;;;2.54;100.00
65376;BME280;51976;47.332;9.404;2024-01-30T01:03:26;94039.97;;;2.56;100.00
65376;BME280;51976;47.332;9.404;2024-01-30T01:05:52;94048.38;;;2.66;100.00
65376;BME280;51976;47.332;9.404;2024-01-30T01:08:17;94047.53;;;2.59;100.00
65376;BME280;51976;47.332;9.404;2024-01-30T01:10:43;94049.78;;;2.35;100.00
65376;BME280;51976;47.332;9.404;2024-01-30T01:13:08;94052.88;;;2.46;100.00
65376;BME280;51976;47.332;9.404;2024-01-30T01:15:34;94050.16;;;2.19;100.00
65376;BME280;51976;47.332;9.404;2024-01-30T01:18:00;94056.53;;;2.31;100.00
65376;BME280;51976;47.332;9.404;2024-01-30T01:20:25;94050.63;;;2.43;100.00
65376;BME280;51976;47.332;9.404;2024-01-30T01:22:51;94054.72;;;2.45;100.00
65376;BME280;51976;47.332;9.404;2024-01-30T01:25:17;94053.28;;;2.56;100.00
65376;BME280;51976;47.332;9.404;2024-01-30T01:27:43;94053.25;;;2.49;100.00
65376;BME280;51976;47.332;9.404;2024-01-30T01:30:10;94043.63;;;2.48;100.00
65376;BME280;51976;47.332;9.404;2024-01-30T01:32:37;94044.06;;;2.52;100.00
65376;BME280;51976;47.332;9.404;2024-01-30T01:35:03;94042.22;;;2.46;100.00
65376;BME280;51976;47.332;9.404;2024-01-30T01:37:31;94038.94;;;2.50;100.00
65376;BME280;51976;47.332;9.404;2024-01-30T01:39:56;94040.16;;;2.54;100.00
65376;BME280;51976;47.332;9.404;2024-01-30T01:42:21;94041.22;;;2.66;100.00
65376;BME280;51976;47.332;9.404;2024-01-30T01:44:47;94046.34;;;2.68;100.00
65376;BME280;51976;47.332;9.404;2024-01-30T01:47:13;94044.47;;;2.62;100.00
65376;BME280;51976;47.332;9.404;2024-01-30T01:49:39;94040.78;;;2.50;100.00
65376;BME280;51976;47.332;9.404;2024-01-30T01:52:05;94034.00;;;2.14;100.00
65376;BME280;51976;47.332;9.404;2024-01-30T01:54:31;94034.41;;;2.11;100.00
65376;BME280;51976;47.332;9.404;2024-01-30T01:56:56;94026.03;;;2.27;100.00
65376;BME280;51976;47.332;9.404;2024-01-30T01:59:23;94035.63;;;2.28;100.00
65376;BME280;51976;47.332;9.404;2024-01-30T02:01:49;94034.84;;;2.41;100.00
65376;BME280;51976;47.332;9.404;2024-01-30T02:04:15;94032.00;;;2.43;100.00
65376;BME280;51976;47.332;9.404;2024-01-30T02:06:41;94036.47;;;2.35;100.00
65376;BME280;51976;47.332;9.404;2024-01-30T02:09:07;94035.66;;;2.35;100.00
65376;BME280;51976;47.332;9.404;2024-01-30T02:11:34;94031.56;;;2.39;100.00
65376;BME280;51976;47.332;9.404;2024-01-30T02:14:03;94035.59;;;2.02;100.00
65376;BME280;51976;47.332;9.404;2024-01-30T02:16:29;94044.38;;;1.96;100.00
65376;BME280;51976;47.332;9.404;2024-01-30T02:18:55;94039.03;;;1.96;100.00
65376;BME280;51976;47.332;9.404;2024-01-30T02:21:20;94033.88;;;1.75;100.00
65376;BME280;51976;47.332;9.404;2024-01-30T02:23:49;94037.50;;;1.60;100.00
65376;BME280;51976;47.332;9.404;2024-01-30T02:26:15;94038.25;;;1.48;100.00
65376;BME280;51976;47.332;9.404;2024-01-30T02:28:41;94034.63;;;1.55;100.00
65376;BME280;51976;47.332;9.404;2024-01-30T02:31:06;94043.28;;;1.77;100.00
65376;BME280;51976;47.332;9.404;2024-01-30T02:33:32;94043.72;;;1.81;100.00
65376;BME280;51976;47.332;9.404;2024-01-30T02:35:57;94043.75;;;1.87;100.00
65376;BME280;51976;47.332;9.404;2024-01-30T02:38:22;94040.81;;;1.76;100.00
65376;BME280;51976;47.332;9.404;2024-01-30T02:40:48;94033.94;;;1.94;100.00
65376;BME280;51976;47.332;9.404;2024-01-30T02:43:14;94040.72;;;2.03;100.00
65376;BME280;51976;47.332;9.404;2024-01-30T02:45:39;94042.59;;;2.16;100.00
65376;BME280;51976;47.332;9.404;2024-01-30T02:48:05;94033.59;;;2.17;100.00
65376;BME280;51976;47.332;9.404;2024-01-30T02:50:30;94035.22;;;2.18;100.00
65376;BME280;51976;47.332;9.404;2024-01-30T02:52:56;94022.72;;;2.12;100.00
65376;BME280;51976;47.332;9.404;2024-01-30T02:55:21;94031.72;;;2.11;100.00
65376;BME280;51976;47.332;9.404;2024-01-30T02:57:46;94028.66;;;2.08;100.00
65376;BME280;51976;47.332;9.404;2024-01-30T03:00:12;94033.16;;;2.14;100.00
65376;BME280;51976;47.332;9.404;2024-01-30T03:02:38;94028.66;;;2.14;100.00
65376;BME280;51976;47.332;9.404;2024-01-30T03:05:05;94022.72;;;2.12;100.00
65376;BME280;51976;47.332;9.404;2024-01-30T03:07:30;94023.78;;;2.18;100.00
65376;BME280;51976;47.332;9.404;2024-01-30T03:09:56;94021.09;;;2.11;100.00
65376;BME280;51976;47.332;9.404;2024-01-30T03:12:21;94023.94;;;2.10;100.00
65376;BME280;51976;47.332;9.404;2024-01-30T03:14:47;94013.13;;;2.11;100.00
65376;BME280;51976;47.332;9.404;2024-01-30T03:17:12;94020.66;;;2.01;100.00
65376;BME280;51976;47.332;9.404;2024-01-30T03:19:38;94016.75;;;1.97;100.00
65376;BME280;51976;47.332;9.404;2024-01-30T03:22:04;94021.06;;;1.98;100.00
65376;BME280;51976;47.332;9.404;2024-01-30T03:24:29;94016.47;;;1.72;100.00
65376;BME280;51976;47.332;9.404;2024-01-30T03:26:54;94005.91;;;1.85;100.00
65376;BME280;51976;47.332;9.404;2024-01-30T03:29:20;94009.19;;;1.87;100.00
65376;BME280;51976;47.332;9.404;2024-01-30T03:31:45;94019.13;;;1.72;100.00
65376;BME280;51976;47.332;9.404;2024-01-30T03:34:11;94015.88;;;1.77;100.00
65376;BME280;51976;47.332;9.404;2024-01-30T03:36:36;94015.72;;;1.98;100.00
65376;BME280;51976;47.332;9.404;2024-01-30T03:39:01;94022.72;;;2.06;100.00
65376;BME280;51976;47.332;9.404;2024-01-30T03:41:27;93990.31;;;1.76;100.00
65376;BME280;51976;47.332;9.404;2024-01-30T03:43:52;94015.22;;;1.68;100.00
65376;BME280;51976;47.332;9.404;2024-01-30T03:46:18;94028.56;;;1.75;100.00
65376;BME280;51976;47.332;9.404;2024-01-30T03:48:44;94016.13;;;1.82;100.00
65376;BME280;51976;47.332;9.404;2024-01-30T03:51:10;94011.91;;;1.53;100.00
65376;BME280;51976;47.332;9.404;2024-01-30T03:53:40;94026.34;;;1.37;100.00
65376;BME280;51976;47.332;9.404;2024-01-30T03:56:06;94011.84;;;1.40;100.00
65376;BME280;51976;47.332;9.404;2024-01-30T03:58:31;94015.13;;;1.35;100.00
65376;BME280;51976;47.332;9.404;2024-01-30T04:00:57;94011.34;;;1.16;100.00
65376;BME280;51976;47.332;9.404;2024-01-30T04:03:22;94016.94;;;1.28;100.00
65376;BME280;51976;47.332;9.404;2024-01-30T04:05:47;94018.38;;;1.37;100.00
65376;BME280;51976;47.332;9.404;2024-01-30T04:08:13;94020.06;;;1.45;100.00
65376;BME280;51976;47.332;9.404;2024-01-30T04:10:38;94014.19;;;1.56;100.00
65376;BME280;51976;47.332;9.404;2024-01-30T04:13:03;94014.97;;;1.50;100.00
65376;BME280;51976;47.332;9.404;2024-01-30T04:15:29;94011.25;;;1.44;100.00
65376;BME280;51976;47.332;9.404;2024-01-30T04:17:57;94020.31;;;1.56;100.00
65376;BME280;51976;47.332;9.404;2024-01-30T04:20:23;94012.56;;;1.61;100.00
65376;BME280;51976;47.332;9.404;2024-01-30T04:22:48;94015.03;;;1.69;100.00
65376;BME280;51976;47.332;9.404;2024-01-30T04:25:14;94008.91;;;1.69;100.00
65376;BME280;51976;47.332;9.404;2024-01-30T04:27:39;94006.06;;;1.77;100.00
65376;BME280;51976;47.332;9.404;2024-01-30T04:30:05;94004.84;;;1.80;100.00
65376;BME280;51976;47.332;9.404;2024-01-30T04:32:31;94004.84;;;1.80;100.00
65376;BME280;51976;47.332;9.404;2024-01-30T04:34:56;94010.19;;;1.86;100.00
65376;BME280;51976;47.332;9.404;2024-01-30T04:37:22;94013.44;;;1.82;100.00
65376;BME280;51976;47.332;9.404;2024-01-30T04:39:48;94012.56;;;1.61;100.00
65376;BME280;51976;47.332;9.404;2024-01-30T04:42:13;94010.13;;;1.66;100.00
65376;BME280;51976;47.332;9.404;2024-01-30T04:44:38;94006.63;;;1.59;100.00
65376;BME280;51976;47.332;9.404;2024-01-30T04:47:04;94005.19;;;1.57;100.00
65376;BME280;51976;47.332;9.404;2024-01-30T04:49:31;94004.81;;;1.60;100.00
65376;BME280;51976;47.332;9.404;2024-01-30T04:51:56;94008.91;;;1.62;100.00
65376;BME280;51976;47.332;9.404;2024-01-30T04:54:23;94009.28;;;1.66;100.00
65376;BME280;51976;47.332;9.404;2024-01-30T04:56:48;94015.88;;;1.77;100.00
65376;BME280;51976;47.332;9.404;2024-01-30T04:59:13;94013.81;;;1.72;100.00
65376;BME280;51976;47.332;9.404;2024-01-30T05:01:39;94013.59;;;1.67;100.00
65376;BME280;51976;47.332;9.404;2024-01-30T05:04:07;94012.19;;;1.71;100.00
65376;BME280;51976;47.332;9.404;2024-01-30T05:06:33;94013.19;;;1.70;100.00
65376;BME280;51976;47.332;9.404;2024-01-30T05:08:58;94024.41;;;1.65;100.00
65376;BME280;51976;47.332;9.404;2024-01-30T05:11:23;94016.25;;;1.67;100.00
65376;BME280;51976;47.332;9.404;2024-01-30T05:13:49;94010.91;;;1.54;100.00
65376;BME280;51976;47.332;9.404;2024-01-30T05:16:14;94020.66;;;1.40;100.00
65376;BME280;51976;47.332;9.404;2024-01-30T05:18:40;94018.22;;;1.45;100.00
65376;BME280;51976;47.332;9.404;2024-01-30T05:21:05;94022.91;;;1.37;100.00
65376;BME280;51976;47.332;9.404;2024-01-30T05:23:31;94024.13;;;1.41;100.00
65376;BME280;51976;47.332;9.404;2024-01-30T05:25:56;94029.88;;;1.44;100.00
65376;BME280;51976;47.332;9.404;2024-01-30T05:28:22;94037.19;;;1.35;100.00
65376;BME280;51976;47.332;9.404;2024-01-30T05:30:47;94035.59;;;1.07;100.00
65376;BME280;51976;47.332;9.404;2024-01-30T05:33:13;94037.00;;;1.02;100.00
65376;BME280;51976;47.332;9.404;2024-01-30T05:35:38;94043.69;;;1.26;100.00
65376;BME280;51976;47.332;9.404;2024-01-30T05:38:04;94026.09;;;1.25;100.00
65376;BME280;51976;47.332;9.404;2024-01-30T05:40:30;94035.13;;;1.31;100.00
65376;BME280;51976;47.332;9.404;2024-01-30T05:42:56;94038.66;;;1.10;100.00
65376;BME280;51976;47.332;9.404;2024-01-30T05:45:21;94040.44;;;1.31;100.00
65376;BME280;51976;47.332;9.404;2024-01-30T05:47:48;94039.88;;;1.42;100.00
65376;BME280;51976;47.332;9.404;2024-01-30T05:50:13;94035.66;;;1.20;100.00
65376;BME280;51976;47.332;9.404;2024-01-30T05:52:39;94045.22;;;1.08;100.00
65376;BME280;51976;47.332;9.404;2024-01-30T05:55:04;94045.03;;;1.09;100.00
65376;BME280;51976;47.332;9.404;2024-01-30T05:57:30;94043.78;;;1.12;100.00
65376;BME280;51976;47.332;9.404;2024-01-30T05:59:56;94049.44;;;1.30;100.00
65376;BME280;51976;47.332;9.404;2024-01-30T06:02:21;94047.06;;;1.48;100.00
65376;BME280;51976;47.332;9.404;2024-01-30T06:04:47;94047.53;;;1.58;100.00
65376;BME280;51976;47.332;9.404;2024-01-30T06:07:12;94043.22;;;1.57;100.00
65376;BME280;51976;47.332;9.404;2024-01-30T06:09:37;94041.78;;;1.55;100.00
65376;BME280;51976;47.332;9.404;2024-01-30T06:12:05;94037.94;;;1.64;100.00
65376;BME280;51976;47.332;9.404;2024-01-30T06:14:30;94037.13;;;1.70;100.00
65376;BME280;51976;47.332;9.404;2024-01-30T06:16:56;94050.72;;;1.47;100.00
65376;BME280;51976;47.332;9.404;2024-01-30T06:19:21;94037.91;;;1.57;100.00
65376;BME280;51976;47.332;9.404;2024-01-30T06:21:46;94047.31;;;1.60;100.00
65376;BME280;51976;47.332;9.404;2024-01-30T06:24:12;94045.50;;;1.67;100.00
65376;BME280;51976;47.332;9.404;2024-01-30T06:26:37;94046.13;;;1.69;100.00
65376;BME280;51976;47.332;9.404;2024-01-30T06:29:03;94049.16;;;1.59;100.00
65376;BME280;51976;47.332;9.404;2024-01-30T06:31:28;94038.31;;;1.54;100.00
65376;BME280;51976;47.332;9.404;2024-01-30T06:33:53;94049.38;;;1.64;100.00
65376;BME280;51976;47.332;9.404;2024-01-30T06:36:19;94052.25;;;1.69;100.00
65376;BME280;51976;47.332;9.404;2024-01-30T06:38:45;94052.41;;;1.55;100.00
65376;BME280;51976;47.332;9.404;2024-01-30T06:41:10;94047.44;;;1.45;100.00
65376;BME280;51976;47.332;9.404;2024-01-30T06:43:36;94054.78;;;1.43;100.00
65376;BME280;51976;47.332;9.404;2024-01-30T06:46:01;94052.13;;;1.43;100.00
65376;BME280;51976;47.332;9.404;2024-01-30T06:48:26;94044.78;;;1.04;100.00
65376;BME280;51976;47.332;9.404;2024-01-30T06:50:54;94055.72;;;1.22;100.00
65376;BME280;51976;47.332;9.404;2024-01-30T06:53:20;94054.13;;;1.28;100.00
65376;BME280;51976;47.332;9.404;2024-01-30T06:55:45;94051.69;;;1.33;100.00
65376;BME280;51976;47.332;9.404;2024-01-30T06:58:11;94053.53;;;1.32;100.00
65376;BME280;51976;47.332;9.404;2024-01-30T07:00:36;94050.22;;;1.24;100.00
65376;BME280;51976;47.332;9.404;2024-01-30T07:03:02;94056.38;;;1.31;100.00
65376;BME280;51976;47.332;9.404;2024-01-30T07:05:28;94060.59;;;1.19;100.00
65376;BME280;51976;47.332;9.404;2024-01-30T07:07:53;94057.53;;;1.22;100.00
65376;BME280;51976;47.332;9.404;2024-01-30T07:10:18;94064.78;;;1.41;100.00
65376;BME280;51976;47.332;9.404;2024-01-30T07:12:44;94058.06;;;1.45;100.00
65376;BME280;51976;47.332;9.404;2024-01-30T07:15:09;94058.53;;;1.55;100.00
65376;BME280;51976;47.332;9.404;2024-01-30T07:17:35;94058.50;;;1.49;100.00
65376;BME280;51976;47.332;9.404;2024-01-30T07:20:02;94061.19;;;1.55;100.00
65376;BME280;51976;47.332;9.404;2024-01-30T07:22:31;94054.28;;;1.61;100.00
65376;BME280;51976;47.332;9.404;2024-01-30T07:24:56;94060.00;;;1.58;100.00
65376;BME280;51976;47.332;9.404;2024-01-30T07:27:22;94060.63;;;1.66;100.00
65376;BME280;51976;47.332;9.404;2024-01-30T07:29:49;94057.22;;;1.79;100.00
65376;BME280;51976;47.332;9.404;2024-01-30T07:32:14;94060.09;;;1.84;100.00
65376;BME280;51976;47.332;9.404;2024-01-30T07:34:39;94056.84;;;1.89;100.00
65376;BME280;51976;47.332;9.404;2024-01-30T07:37:06;94058.25;;;1.85;100.00
65376;BME280;51976;47.332;9.404;2024-01-30T07:39:34;94066.03;;;1.86;100.00
65376;BME280;51976;47.332;9.404;2024-01-30T07:42:01;94059.69;;;1.87;100.00
65376;BME280;51976;47.332;9.404;2024-01-30T07:44:26;94066.66;;;1.88;100.00
65376;BME280;51976;47.332;9.404;2024-01-30T07:46:52;94058.63;;;1.75;100.00
65376;BME280;51976;47.332;9.404;2024-01-30T07:49:17;94074.00;;;1.86;100.00
65376;BME280;51976;47.332;9.404;2024-01-30T07:51:43;94076.00;;;1.78;100.00
65376;BME280;51976;47.332;9.404;2024-01-30T07:54:13;94076.66;;;1.93;100.00
65376;BME280;51976;47.332;9.404;2024-01-30T07:56:41;94081.03;;;2.07;100.00
65376;BME280;51976;47.332;9.404;2024-01-30T07:59:10;94081.63;;;2.02;100.00
65376;BME280;51976;47.332;9.404;2024-01-30T08:01:35;94082.41;;;1.90;100.00
65376;BME280;51976;47.332;9.404;2024-01-30T08:04:01;94080.72;;;1.76;100.00
65376;BME280;51976;47.332;9.404;2024-01-30T08:06:26;94078.50;;;1.86;100.00
65376;BME280;51976;47.332;9.404;2024-01-30T08:08:52;94081.59;;;1.89;100.00
65376;BME280;51976;47.332;9.404;2024-01-30T08:11:20;94093.34;;;2.15;100.00
65376;BME280;51976;47.332;9.404;2024-01-30T08:13:53;94087.84;;;2.29;100.00
65376;BME280;51976;47.332;9.404;2024-01-30T08:16:19;94090.94;;;2.40;100.00
65376;BME280;51976;47.332;9.404;2024-01-30T08:18:44;94092.16;;;2.50;100.00
65376;BME280;51976;47.332;9.404;2024-01-30T08:21:10;94089.53;;;2.57;100.00
65376;BME280;51976;47.332;9.404;2024-01-30T08:23:35;94086.88;;;2.63;100.00
65376;BME280;51976;47.332;9.404;2024-01-30T08:26:01;94084.41;;;2.75;100.00
65376;BME280;51976;47.332;9.404;2024-01-30T08:28:27;94091.81;;;2.73;100.00
65376;BME280;51976;47.332;9.404;2024-01-30T08:30:53;94091.59;;;2.81;100.00
65376;BME280;51976;47.332;9.404;2024-01-30T08:33:18;94098.56;;;2.95;100.00
65376;BME280;51976;47.332;9.404;2024-01-30T08:35:44;94090.75;;;3.07;100.00
65376;BME280;51976;47.332;9.404;2024-01-30T08:38:09;94094.66;;;3.18;100.00
65376;BME280;51976;47.332;9.404;2024-01-30T08:40:37;94092.41;;;3.21;100.00
65376;BME280;51976;47.332;9.404;2024-01-30T08:43:02;94091.59;;;3.27;100.00
65376;BME280;51976;47.332;9.404;2024-01-30T08:45:29;94092.63;;;3.26;100.00
65376;BME280;51976;47.332;9.404;2024-01-30T08:47:55;94091.34;;;3.35;100.00
65376;BME280;51976;47.332;9.404;2024-01-30T08:50:21;94088.47;;;3.44;100.00
65376;BME280;51976;47.332;9.404;2024-01-30T08:52:46;94093.78;;;3.50;100.00
65376;BME280;51976;47.332;9.404;2024-01-30T08:55:12;94095.41;;;3.58;100.00
65376;BME280;51976;47.332;9.404;2024-01-30T08:57:37;94102.97;;;3.67;100.00
65376;BME280;51976;47.332;9.404;2024-01-30T09:00:05;94100.69;;;3.78;100.00
65376;BME280;51976;47.332;9.404;2024-01-30T09:02:32;94094.75;;;3.82;100.00
65376;BME280;51976;47.332;9.404;2024-01-30T09:04:57;94093.25;;;3.93;100.00
65376;BME280;51976;47.332;9.404;2024-01-30T09:07:23;94090.16;;;3.96;100.00
65376;BME280;51976;47.332;9.404;2024-01-30T09:09:48;94097.94;;;4.04;100.00
65376;BME280;51976;47.332;9.404;2024-01-30T09:12:14;94100.34;;;4.12;100.00
65376;BME280;51976;47.332;9.404;2024-01-30T09:14:41;94101.38;;;4.11;100.00
65376;BME280;51976;47.332;9.404;2024-01-30T09:17:06;94094.34;;;4.23;100.00
65376;BME280;51976;47.332;9.404;2024-01-30T09:19:32;94104.72;;;4.38;100.00
65376;BME280;51976;47.332;9.404;2024-01-30T09:21:57;94105.72;;;4.50;100.00
65376;BME280;51976;47.332;9.404;2024-01-30T09:24:23;94095.00;;;4.57;100.00
65376;BME280;51976;47.332;9.404;2024-01-30T09:26:49;94106.38;;;4.77;100.00
65376;BME280;51976;47.332;9.404;2024-01-30T09:29:14;94108.50;;;4.93;100.00
65376;BME280;51976;47.332;9.404;2024-01-30T09:31:43;94107.81;;;5.04;100.00
65376;BME280;51976;47.332;9.404;2024-01-30T09:34:08;94109.78;;;5.16;100.00
65376;BME280;51976;47.332;9.404;2024-01-30T09:36:34;94111.72;;;5.27;100.00
65376;BME280;51976;47.332;9.404;2024-01-30T09:38:59;94110.44;;;5.36;100.00
65376;BME280;51976;47.332;9.404;2024-01-30T09:41:27;94104.81;;;5.44;100.00
65376;BME280;51976;47.332;9.404;2024-01-30T09:43:54;94108.16;;;5.58;100.00
65376;BME280;51976;47.332;9.404;2024-01-30T09:46:23;94102.31;;;5.67;100.00
65376;BME280;51976;47.332;9.404;2024-01-30T09:48:53;94107.97;;;5.77;100.00
65376;BME280;51976;47.332;9.404;2024-01-30T09:51:20;94101.28;;;5.87;100.00
65376;BME280;51976;47.332;9.404;2024-01-30T09:53:48;94102.44;;;5.97;100.00
65376;BME280;51976;47.332;9.404;2024-01-30T09:56:16;94100.16;;;6.01;100.00
65376;BME280;51976;47.332;9.404;2024-01-30T09:58:42;94095.28;;;6.09;100.00
65376;BME280;51976;47.332;9.404;2024-01-30T10:01:07;94095.22;;;6.16;100.00
65376;BME280;51976;47.332;9.404;2024-01-30T10:03:33;94093.78;;;6.32;100.00
65376;BME280;51976;47.332;9.404;2024-01-30T10:05:59;94092.56;;;6.46;100.00
65376;BME280;51976;47.332;9.404;2024-01-30T10:08:26;94097.25;;;6.51;100.00
65376;BME280;51976;47.332;9.404;2024-01-30T10:10:51;94083.88;;;6.51;100.00
65376;BME280;51976;47.332;9.404;2024-01-30T10:13:18;94086.34;;;6.64;100.00
65376;BME280;51976;47.332;9.404;2024-01-30T10:15:44;94086.03;;;6.72;100.00
65376;BME280;51976;47.332;9.404;2024-01-30T10:18:10;94076.25;;;6.77;100.00
65376;BME280;51976;47.332;9.404;2024-01-30T10:20:36;94080.00;;;6.88;100.00
65376;BME280;51976;47.332;9.404;2024-01-30T10:23:02;94073.81;;;6.88;100.00
65376;BME280;51976;47.332;9.404;2024-01-30T10:25:28;94072.69;;;6.95;100.00
65376;BME280;51976;47.332;9.404;2024-01-30T10:27:53;94064.91;;;7.05;100.00
65376;BME280;51976;47.332;9.404;2024-01-30T10:30:21;94071.44;;;7.21;100.00
65376;BME280;51976;47.332;9.404;2024-01-30T10:32:47;94066.69;;;7.35;100.00
65376;BME280;51976;47.332;9.404;2024-01-30T10:35:13;94073.91;;;7.46;100.00
65376;BME280;51976;47.332;9.404;2024-01-30T10:37:38;94070.44;;;7.57;100.00
65376;BME280;51976;47.332;9.404;2024-01-30T10:40:04;94058.41;;;7.60;100.00
65376;BME280;51976;47.332;9.404;2024-01-30T10:42:32;94072.84;;;7.82;100.00
65376;BME280;51976;47.332;9.404;2024-01-30T10:45:05;94070.66;;;7.91;100.00
65376;BME280;51976;47.332;9.404;2024-01-30T10:47:34;94065.69;;;7.99;100.00
65376;BME280;51976;47.332;9.404;2024-01-30T10:50:00;94063.94;;;8.05;100.00
65376;BME280;51976;47.332;9.404;2024-01-30T10:52:27;94062.72;;;8.24;100.00
65376;BME280;51976;47.332;9.404;2024-01-30T10:54:54;94059.00;;;8.25;100.00
65376;BME280;51976;47.332;9.404;2024-01-30T10:57:23;94059.00;;;8.25;100.00
65376;BME280;51976;47.332;9.404;2024-01-30T10:59:48;94060.63;;;8.26;100.00
65376;BME280;51976;47.332;9.404;2024-01-30T11:02:15;94066.72;;;8.33;100.00
65376;BME280;51976;47.332;9.404;2024-01-30T11:04:41;94058.69;;;8.50;100.00
65376;BME280;51976;47.332;9.404;2024-01-30T11:07:16;94066.16;;;8.60;100.00
65376;BME280;51976;47.332;9.404;2024-01-30T11:09:51;94053.88;;;8.64;100.00
65376;BME280;51976;47.332;9.404;2024-01-30T11:12:22;94049.66;;;8.68;100.00
65376;BME280;51976;47.332;9.404;2024-01-30T11:14:48;94051.28;;;8.69;100.00
65376;BME280;51976;47.332;9.404;2024-01-30T11:17:13;94053.38;;;8.67;100.00
65376;BME280;51976;47.332;9.404;2024-01-30T11:19:41;94055.84;;;8.68;100.00
65376;BME280;51976;47.332;9.404;2024-01-30T11:22:07;94048.59;;;8.86;100.00
65376;BME280;51976;47.332;9.404;2024-01-30T11:24:41;94036.97;;;8.97;100.00
65376;BME280;51976;47.332;9.404;2024-01-30T11:27:09;94043.66;;;9.11;100.00
65376;BME280;51976;47.332;9.404;2024-01-30T11:29:36;94036.91;;;9.25;100.00
65376;BME280;51976;47.332;9.404;2024-01-30T11:32:02;94032.81;;;9.39;100.00
65376;BME280;51976;47.332;9.404;2024-01-30T11:34:27;94032.50;;;9.53;100.00
65376;BME280;51976;47.332;9.404;2024-01-30T11:36:58;94025.84;;;9.60;100.00
65376;BME280;51976;47.332;9.404;2024-01-30T11:39:25;94035.16;;;9.69;100.00
65376;BME280;51976;47.332;9.404;2024-01-30T11:41:52;94026.84;;;9.71;100.00
65376;BME280;51976;47.332;9.404;2024-01-30T11:44:21;94019.97;;;9.63;100.00
65376;BME280;51976;47.332;9.404;2024-01-30T11:46:51;94020.63;;;9.70;100.00
65376;BME280;51976;47.332;9.404;2024-01-30T11:49:17;94016.06;;;9.71;100.00
65376;BME280;51976;47.332;9.404;2024-01-30T11:51:43;94013.94;;;9.73;100.00
65376;BME280;51976;47.332;9.404;2024-01-30T11:54:08;94011.63;;;9.81;100.00
65376;BME280;51976;47.332;9.404;2024-01-30T11:56:36;94015.00;;;9.94;100.00
65376;BME280;51976;47.332;9.404;2024-01-30T11:59:02;94016.47;;;10.01;100.00
65376;BME280;51976;47.332;9.404;2024-01-30T12:01:27;94023.81;;;10.06;100.00
65376;BME280;51976;47.332;9.404;2024-01-30T12:03:53;94006.66;;;10.12;100.00
65376;BME280;51976;47.332;9.404;2024-01-30T12:06:18;94004.81;;;10.17;100.00
65376;BME280;51976;47.332;9.404;2024-01-30T12:08:58;94004.78;;;10.34;100.00
65376;BME280;51976;47.332;9.404;2024-01-30T12:11:25;94001.78;;;10.31;100.00
65376;BME280;51976;47.332;9.404;2024-01-30T12:13:52;93991.81;;;10.31;100.00
65376;BME280;51976;47.332;9.404;2024-01-30T12:16:18;93992.28;;;10.50;100.00
65376;BME280;51976;47.332;9.404;2024-01-30T12:18:43;93988.38;;;10.63;100.00
65376;BME280;51976;47.332;9.404;2024-01-30T12:21:08;93987.59;;;10.67;100.00
65376;BME280;51976;47.332;9.404;2024-01-30T12:23:34;93987.59;;;10.67;100.00
65376;BME280;51976;47.332;9.404;2024-01-30T12:26:01;93987.09;;;10.70;100.00
65376;BME280;51976;47.332;9.404;2024-01-30T12:28:27;93985.75;;;10.73;100.00
65376;BME280;51976;47.332;9.404;2024-01-30T12:30:56;93987.94;;;10.76;100.00
65376;BME280;51976;47.332;9.404;2024-01-30T12:33:27;93982.88;;;10.79;100.00
65376;BME280;51976;47.332;9.404;2024-01-30T12:35:54;93988.47;;;10.73;100.00
65376;BME280;51976;47.332;9.404;2024-01-30T12:38:19;93985.19;;;10.71;100.00
65376;BME280;51976;47.332;9.404;2024-01-30T12:40:45;93982.41;;;10.61;100.00
65376;BME280;51976;47.332;9.404;2024-01-30T12:43:13;93987.09;;;10.70;100.00
65376;BME280;51976;47.332;9.404;2024-01-30T12:45:41;93982.00;;;10.74;100.00
65376;BME280;51976;47.332;9.404;2024-01-30T12:48:08;93980.16;;;10.79;100.00
65376;BME280;51976;47.332;9.404;2024-01-30T12:50:34;93977.22;;;10.81;100.00
65376;BME280;51976;47.332;9.404;2024-01-30T12:52:59;93976.97;;;10.82;100.00